Time;durP1;ratioP1;P1;durP2;ratioP2;P2;SDS_P1;SDS_P2;PMS_P1;PMS_P2;Temp;Humidity;BMP_temperature;BMP_pressure;BME280_temperature;BME280_humidity;BME280_pressure;Samples;Min_cycle;Max_cycle;Signal;HPM_P1;HPM_P2
2022/06/29 14:33:49;;;;;;;4.60;3.87;;;24.70;99.90;;;;;;6168546;22;1278215;-71
2022/06/29 14:36:15;;;;;;;6.80;4.40;;;24.60;99.90;;;;;;6216645;23;20028;-71
2022/06/29 14:38:41;;;;;;;5.80;4.45;;;24.60;99.90;;;;;;6190775;23;20023;-71
2022/06/29 14:41:07;;;;;;;6.88;4.50;;;24.60;99.90;;;;;;6217492;23;20338;-70
2022/06/29 14:43:33;;;;;;;5.63;4.55;;;24.60;99.90;;;;;;6217160;23;20441;-71
2022/06/29 14:45:59;;;;;;;5.45;3.83;;;24.60;99.90;;;;;;6217324;23;20017;-71
2022/06/29 14:48:26;;;;;;;6.20;4.57;;;24.60;99.90;;;;;;6188844;23;20074;-71
2022/06/29 14:50:56;;;;;;;5.60;4.15;;;24.60;99.90;;;;;;6163664;23;20017;-71
2022/06/29 14:53:26;;;;;;;5.55;4.38;;;24.60;99.90;;;;;;6216463;23;20020;-71
2022/06/29 14:55:55;;;;;;;10.55;4.53;;;24.50;99.90;;;;;;6216178;23;20020;-71
2022/06/29 14:58:21;;;;;;;5.65;4.07;;;24.50;99.90;;;;;;6216811;23;20580;-70
2022/06/29 15:00:47;;;;;;;6.15;4.25;;;24.50;99.90;;;;;;6216726;23;20016;-71
2022/06/29 15:03:13;;;;;;;6.82;4.10;;;24.50;99.90;;;;;;6216729;23;20032;-71
2022/06/29 15:05:39;;;;;;;7.28;4.60;;;24.50;99.90;;;;;;6216636;23;20021;-70
2022/06/29 15:08:05;;;;;;;6.82;4.43;;;24.40;99.90;;;;;;6216937;23;20028;-71
2022/06/29 15:10:33;;;;;;;5.78;4.20;;;24.40;99.90;;;;;;6216961;23;20021;-70
2022/06/29 15:13:01;;;;;;;7.80;4.80;;;24.40;99.90;;;;;;6216377;23;20526;-70
2022/06/29 15:15:27;;;;;;;7.53;4.53;;;24.40;99.90;;;;;;6190285;23;20433;-71
2022/06/29 15:17:54;;;;;;;5.28;3.75;;;24.40;99.90;;;;;;6216544;23;20027;-73
2022/06/29 15:20:19;;;;;;;5.30;4.18;;;24.40;99.90;;;;;;6216833;23;20031;-71
2022/06/29 15:22:45;;;;;;;6.38;4.70;;;24.40;99.90;;;;;;6216388;23;20056;-71
2022/06/29 15:25:11;;;;;;;6.75;4.55;;;24.40;99.90;;;;;;6190391;23;20019;-71
2022/06/29 15:27:37;;;;;;;10.45;4.63;;;24.40;99.90;;;;;;6216838;23;20012;-71
2022/06/29 15:30:03;;;;;;;6.57;4.50;;;24.40;99.90;;;;;;6190091;23;20096;-71
2022/06/29 15:32:29;;;;;;;6.25;4.00;;;24.40;99.90;;;;;;6216775;23;20021;-71
2022/06/29 15:40:23;;;;;;;5.97;4.63;;;24.50;99.90;;;;;;6216761;23;20067;-71
2022/06/29 15:42:50;;;;;;;5.50;4.55;;;24.60;99.90;;;;;;6190224;23;20017;-71
2022/06/29 15:45:16;;;;;;;6.97;5.10;;;24.70;99.90;;;;;;6190415;23;20013;-71
2022/06/29 15:47:41;;;;;;;6.93;5.00;;;24.80;99.90;;;;;;6216468;23;20311;-71
2022/06/29 15:50:07;;;;;;;5.82;5.22;;;24.90;99.90;;;;;;6216735;23;20027;-71
2022/06/29 15:52:33;;;;;;;5.28;4.38;;;24.90;99.90;;;;;;6216811;23;20139;-71
2022/06/29 15:57:43;;;;;;;5.45;4.60;;;25.10;99.90;;;;;;6216208;23;20408;-71
2022/06/29 16:00:12;;;;;;;5.72;4.25;;;25.10;99.90;;;;;;6190073;23;20040;-71
2022/06/29 16:02:39;;;;;;;8.63;4.80;;;25.20;99.90;;;;;;6216358;23;20013;-71
2022/06/29 16:05:05;;;;;;;6.00;4.53;;;25.20;99.90;;;;;;6188934;23;20378;-70
2022/06/29 16:07:31;;;;;;;6.32;4.40;;;25.20;99.90;;;;;;6216585;23;20017;-71
2022/06/29 16:09:57;;;;;;;4.95;4.03;;;25.20;99.90;;;;;;6216423;23;20438;-71
2022/06/29 16:12:23;;;;;;;5.30;4.38;;;25.20;99.90;;;;;;6189945;23;20024;-71
2022/06/29 16:14:48;;;;;;;4.93;3.92;;;25.20;99.90;;;;;;6216130;23;20017;-71
2022/06/29 16:17:14;;;;;;;6.10;4.55;;;25.30;99.90;;;;;;6216470;23;20091;-71
2022/06/29 16:19:40;;;;;;;4.97;4.20;;;25.30;99.90;;;;;;6216558;23;20042;-71
2022/06/29 16:22:07;;;;;;;5.25;4.43;;;25.40;99.90;;;;;;6189988;23;20043;-71
2022/06/29 16:24:33;;;;;;;5.18;4.25;;;25.50;99.90;;;;;;6216468;23;20040;-71
2022/06/29 16:26:59;;;;;;;7.15;4.32;;;25.50;99.90;;;;;;6216294;23;20016;-71
2022/06/29 16:29:24;;;;;;;8.00;4.63;;;25.60;99.90;;;;;;6216935;23;20025;-71
2022/06/29 16:31:50;;;;;;;5.20;4.40;;;25.70;99.90;;;;;;6216257;23;20012;-71
2022/06/29 16:34:15;;;;;;;6.20;4.53;;;25.70;99.90;;;;;;6216156;23;20014;-71
2022/06/29 16:36:41;;;;;;;7.32;4.70;;;25.80;99.90;;;;;;6216308;23;20022;-71
2022/06/29 16:39:08;;;;;;;5.93;4.53;;;25.80;99.90;;;;;;6216237;23;20019;-72
2022/06/29 16:41:34;;;;;;;8.38;4.03;;;25.80;99.90;;;;;;6216313;23;20075;-71
2022/06/29 16:44:00;;;;;;;6.28;4.68;;;25.80;99.90;;;;;;6216282;23;20009;-71
2022/06/29 16:46:25;;;;;;;7.18;4.15;;;25.80;99.90;;;;;;6189257;23;20024;-72
2022/06/29 16:48:51;;;;;;;6.93;4.38;;;25.80;99.90;;;;;;6216080;23;20382;-71
2022/06/29 16:51:17;;;;;;;6.20;5.25;;;25.90;99.90;;;;;;6216124;23;20009;-71
2022/06/29 16:53:44;;;;;;;6.20;4.90;;;25.90;99.90;;;;;;6216152;23;20056;-72
2022/06/29 16:56:10;;;;;;;9.20;4.53;;;25.90;99.90;;;;;;6215975;23;20389;-71
2022/06/29 16:58:35;;;;;;;5.20;4.10;;;25.90;99.90;;;;;;6215727;23;20036;-72
2022/06/29 17:01:01;;;;;;;5.40;4.43;;;25.90;99.90;;;;;;6215953;23;20048;-71
2022/06/29 17:03:27;;;;;;;4.93;3.95;;;25.80;99.90;;;;;;6215381;23;20016;-71
2022/06/29 17:05:53;;;;;;;6.07;4.30;;;25.80;99.90;;;;;;6215668;23;20350;-71
2022/06/29 17:08:18;;;;;;;10.27;4.28;;;25.90;99.90;;;;;;6215725;23;20107;-71
2022/06/29 17:10:44;;;;;;;6.05;4.13;;;25.80;99.90;;;;;;6215994;23;20024;-73
2022/06/29 17:13:10;;;;;;;5.88;4.85;;;25.80;99.90;;;;;;6215935;23;20016;-72
2022/06/29 17:15:36;;;;;;;4.63;4.00;;;25.80;99.90;;;;;;6215779;23;20488;-71
2022/06/29 17:18:02;;;;;;;5.50;4.60;;;25.80;99.90;;;;;;6189403;23;20020;-73
2022/06/29 17:20:28;;;;;;;5.25;4.30;;;25.70;99.90;;;;;;6215909;23;20017;-71
2022/06/29 17:22:54;;;;;;;6.00;4.55;;;25.60;99.90;;;;;;6189424;23;20051;-72
2022/06/29 17:25:20;;;;;;;7.63;3.97;;;25.60;99.90;;;;;;6215974;23;20048;-72
2022/06/29 17:27:45;;;;;;;5.93;3.92;;;25.50;99.90;;;;;;6215738;23;20103;-71
2022/06/29 17:30:12;;;;;;;4.80;4.20;;;25.40;99.90;;;;;;6215775;23;20052;-72
2022/06/29 17:32:38;;;;;;;5.35;3.72;;;25.40;99.90;;;;;;6188587;23;20103;-72
2022/06/29 17:35:04;;;;;;;5.10;3.60;;;25.30;99.90;;;;;;6215600;23;20019;-72
2022/06/29 17:37:30;;;;;;;4.60;3.78;;;25.30;99.90;;;;;;6215845;23;20020;-72
2022/06/29 17:39:56;;;;;;;6.15;4.38;;;25.20;99.90;;;;;;6215785;23;20067;-73
2022/06/29 17:42:22;;;;;;;5.95;4.90;;;25.10;99.90;;;;;;6189293;23;20438;-71
2022/06/29 17:44:48;;;;;;;6.18;4.05;;;25.10;99.90;;;;;;6215590;23;20040;-72
2022/06/29 17:47:13;;;;;;;7.10;5.05;;;25.00;99.90;;;;;;6215271;23;20476;-74
2022/06/29 17:49:39;;;;;;;5.50;4.55;;;24.90;99.90;;;;;;6189102;23;20104;-72
2022/06/29 17:52:06;;;;;;;6.90;4.72;;;24.90;99.90;;;;;;6215745;23;20446;-73
2022/06/29 17:54:35;;;;;;;6.72;4.63;;;24.90;99.90;;;;;;6215553;23;20013;-72
2022/06/29 17:57:01;;;;;;;5.60;4.38;;;24.80;99.90;;;;;;6215681;23;20020;-72
2022/06/29 17:59:27;;;;;;;8.68;4.68;;;24.80;99.90;;;;;;6215649;23;20016;-72
2022/06/29 18:01:54;;;;;;;7.07;4.75;;;24.70;99.90;;;;;;6215525;23;20048;-73
2022/06/29 18:04:20;;;;;;;8.02;4.88;;;24.70;99.90;;;;;;6215604;23;20008;-73
2022/06/29 18:06:46;;;;;;;5.82;4.20;;;24.60;99.90;;;;;;6215612;23;20321;-72
2022/06/29 18:09:12;;;;;;;5.43;4.82;;;24.60;99.90;;;;;;6189077;23;20020;-74
2022/06/29 18:11:38;;;;;;;5.78;4.47;;;24.50;99.90;;;;;;6217053;23;20453;-72
2022/06/29 18:14:04;;;;;;;5.28;4.78;;;24.50;99.90;;;;;;6217344;23;20016;-74
2022/06/29 18:16:31;;;;;;;4.65;3.95;;;24.40;99.90;;;;;;6217509;23;20046;-72
2022/06/29 18:18:57;;;;;;;11.13;5.30;;;24.40;99.90;;;;;;6217473;23;20017;-72
2022/06/29 18:21:24;;;;;;;5.32;4.05;;;24.30;99.90;;;;;;6190201;23;20012;-72
2022/06/29 18:23:49;;;;;;;6.82;4.15;;;24.30;99.90;;;;;;6217207;23;20103;-73
2022/06/29 18:26:15;;;;;;;6.65;5.22;;;24.30;99.90;;;;;;6189289;23;20048;-73
2022/06/29 18:28:41;;;;;;;6.63;4.65;;;24.30;99.90;;;;;;6216934;23;20016;-72
2022/06/29 18:31:07;;;;;;;5.47;4.97;;;24.20;99.90;;;;;;6217447;23;20024;-73
2022/06/29 18:33:32;;;;;;;4.90;4.35;;;24.20;99.90;;;;;;6216113;23;20016;-72
2022/06/29 18:36:00;;;;;;;5.47;4.57;;;24.10;99.90;;;;;;6216443;23;20075;-74
2022/06/29 18:38:26;;;;;;;5.35;4.53;;;24.10;99.90;;;;;;6189507;23;20020;-71
2022/06/29 18:40:52;;;;;;;4.90;4.25;;;24.10;99.90;;;;;;6190807;23;20020;-71
2022/06/29 18:43:18;;;;;;;5.20;4.70;;;24.00;99.90;;;;;;6216010;23;20025;-73
2022/06/29 18:45:44;;;;;;;6.00;5.38;;;24.00;99.90;;;;;;6217193;23;20067;-72
2022/06/29 18:48:10;;;;;;;5.22;4.65;;;24.00;99.90;;;;;;6216635;23;20347;-72
2022/06/29 18:50:36;;;;;;;5.65;4.85;;;23.90;99.90;;;;;;6216542;23;20016;-72
2022/06/29 18:53:02;;;;;;;6.15;5.03;;;23.90;99.90;;;;;;6217341;23;20020;-74
2022/06/29 18:55:27;;;;;;;6.40;5.03;;;23.80;99.90;;;;;;6190450;23;20021;-72
2022/06/29 18:57:53;;;;;;;5.80;5.03;;;23.80;99.90;;;;;;6217176;23;20047;-72
2022/06/29 19:00:19;;;;;;;7.28;5.30;;;23.80;99.90;;;;;;6217149;23;20091;-73
2022/06/29 19:02:46;;;;;;;6.88;4.45;;;23.70;99.90;;;;;;6216853;23;20032;-71
2022/06/29 19:05:12;;;;;;;7.03;4.72;;;23.70;99.90;;;;;;6190180;23;20024;-73
2022/06/29 19:07:38;;;;;;;7.82;5.63;;;23.70;99.90;;;;;;6216984;23;20024;-73
2022/06/29 19:10:03;;;;;;;7.13;5.22;;;23.60;99.90;;;;;;6217076;23;20013;-72
2022/06/29 19:12:29;;;;;;;7.22;4.65;;;23.60;99.90;;;;;;6164008;23;20445;-74
2022/06/29 19:14:56;;;;;;;6.30;4.97;;;23.60;99.90;;;;;;6216335;23;20013;-73
2022/06/29 19:17:22;;;;;;;6.47;5.28;;;23.60;99.90;;;;;;6190252;23;20087;-73
2022/06/29 19:19:47;;;;;;;6.15;5.47;;;23.50;99.90;;;;;;6217333;23;20055;-71
2022/06/29 19:22:13;;;;;;;8.10;5.35;;;23.40;99.90;;;;;;6216140;23;20029;-71
2022/06/29 19:24:39;;;;;;;8.30;5.35;;;23.40;99.90;;;;;;6216264;23;20427;-71
2022/06/29 19:27:05;;;;;;;8.20;5.53;;;23.40;99.90;;;;;;6216769;23;20082;-73
2022/06/29 19:29:31;;;;;;;6.55;5.30;;;23.40;99.90;;;;;;6216507;23;20020;-72
2022/06/29 19:31:57;;;;;;;6.22;5.00;;;23.40;99.90;;;;;;6216655;23;20450;-73
2022/06/29 19:34:23;;;;;;;6.13;5.15;;;23.30;99.90;;;;;;6216165;23;20342;-72
2022/06/29 19:36:48;;;;;;;6.63;5.07;;;23.30;99.90;;;;;;6216672;23;20071;-72
2022/06/29 19:39:14;;;;;;;7.63;5.38;;;23.30;99.90;;;;;;6189478;23;20096;-74
2022/06/29 19:41:40;;;;;;;5.25;4.72;;;23.30;99.90;;;;;;6216649;23;20091;-71
2022/06/29 19:44:06;;;;;;;7.28;5.18;;;23.20;99.90;;;;;;6216824;23;20453;-72
2022/06/29 19:46:34;;;;;;;5.13;4.30;;;23.20;99.90;;;;;;6216742;23;20017;-72
2022/06/29 19:49:02;;;;;;;6.45;5.35;;;23.10;99.90;;;;;;6216581;23;20092;-72
2022/06/29 19:51:28;;;;;;;12.75;6.05;;;23.10;99.90;;;;;;6216526;23;20017;-73
2022/06/29 19:53:54;;;;;;;8.52;6.63;;;23.10;99.90;;;;;;6216696;23;20013;-72
2022/06/29 19:56:20;;;;;;;7.85;5.55;;;23.10;99.90;;;;;;6216538;23;20054;-73
2022/06/29 19:58:46;;;;;;;7.28;5.47;;;23.10;99.90;;;;;;6216628;23;20031;-72
2022/06/29 20:01:15;;;;;;;;;;;23.00;99.90;;;;;;6190332;23;20024;-73
2022/06/29 20:03:41;;;;;;;8.32;6.43;;;23.00;99.90;;;;;;6216267;23;19919;-73
2022/06/29 20:06:08;;;;;;;7.95;6.00;;;23.00;99.90;;;;;;6216505;23;20016;-73
2022/06/29 20:08:34;;;;;;;6.53;5.78;;;22.90;99.90;;;;;;6216533;23;20087;-72
2022/06/29 20:11:08;;;;;;;7.50;6.70;;;22.90;99.90;;;;;;6216489;23;20021;-73
2022/06/29 20:13:35;;;;;;;8.98;6.38;;;22.90;99.90;;;;;;6216248;23;20028;-72
2022/06/29 20:16:01;;;;;;;10.85;6.82;;;22.80;99.90;;;;;;6216397;23;20017;-72
2022/06/29 20:18:26;;;;;;;10.60;6.50;;;22.80;99.90;;;;;;6216292;23;20388;-72
2022/06/29 20:20:52;;;;;;;10.45;6.80;;;22.70;99.90;;;;;;6216376;23;20051;-72
2022/06/29 20:23:18;;;;;;;8.95;7.15;;;22.70;99.90;;;;;;6216342;23;20016;-72
2022/06/29 20:25:43;;;;;;;;;;;22.70;99.90;;;;;;6216918;23;20013;-71
2022/06/29 20:28:09;;;;;;;8.52;6.97;;;22.60;99.90;;;;;;6216178;23;19916;-72
2022/06/29 20:30:35;;;;;;;;;;;22.60;99.90;;;;;;6216755;23;20056;-71
2022/06/29 20:33:02;;;;;;;7.28;6.50;;;22.50;99.90;;;;;;6215951;23;19985;-71
2022/06/29 20:35:28;;;;;;;10.70;6.75;;;22.50;99.90;;;;;;6216343;23;20095;-72
2022/06/29 20:37:53;;;;;;;8.05;6.50;;;22.50;99.90;;;;;;6216120;23;20031;-72
2022/06/29 20:40:20;;;;;;;9.82;6.07;;;22.40;99.90;;;;;;6216197;23;20017;-71
2022/06/29 20:42:46;;;;;;;7.97;6.60;;;22.30;99.90;;;;;;6216256;23;20075;-72
2022/06/29 20:45:21;;;;;;;9.52;7.25;;;22.30;99.90;;;;;;6216148;23;20438;-72
2022/06/29 20:47:58;;;;;;;10.05;7.40;;;22.20;99.90;;;;;;6216079;23;20096;-73
2022/06/29 20:50:27;;;;;;;10.30;7.30;;;22.20;99.90;;;;;;6216172;23;20047;-72
2022/06/29 20:52:52;;;;;;;7.85;6.70;;;22.10;99.90;;;;;;6189613;23;20077;-73
2022/06/29 20:55:19;;;;;;;12.60;7.18;;;22.10;99.90;;;;;;6164025;23;20044;-71
2022/06/29 20:57:46;;;;;;;7.75;6.25;;;22.00;99.90;;;;;;6216133;23;20070;-72
2022/06/29 21:00:13;;;;;;;8.88;6.82;;;22.00;99.90;;;;;;6215991;23;20032;-72
2022/06/29 21:02:40;;;;;;;9.40;7.20;;;21.90;99.90;;;;;;6215792;23;20091;-72
2022/06/29 21:05:08;;;;;;;9.02;7.45;;;21.90;99.90;;;;;;6164539;23;20024;-71
2022/06/29 21:07:35;;;;;;;9.85;7.03;;;21.80;99.90;;;;;;6189148;23;20020;-72
2022/06/29 21:10:04;;;;;;;9.23;7.13;;;21.80;99.90;;;;;;6188914;23;20023;-71
2022/06/29 21:12:29;;;;;;;10.68;7.97;;;21.70;99.90;;;;;;6215880;23;20012;-71
2022/06/29 21:15:00;;;;;;;13.25;8.02;;;21.70;99.90;;;;;;6215819;23;20465;-72
2022/06/29 21:17:27;;;;;;;9.27;7.25;;;21.60;99.90;;;;;;6216021;23;20027;-71
2022/06/29 21:19:52;;;;;;;9.93;7.40;;;21.60;99.90;;;;;;6215905;23;20020;-71
2022/06/29 21:22:19;;;;;;;10.43;7.30;;;21.60;99.90;;;;;;6215847;23;20021;-71
2022/06/29 21:24:46;;;;;;;12.23;8.80;;;21.60;99.90;;;;;;6215843;23;20459;-71
2022/06/29 21:27:12;;;;;;;11.00;7.75;;;21.50;99.90;;;;;;6215756;23;20046;-73
2022/06/29 21:29:37;;;;;;;;;;;21.50;99.90;;;;;;6216347;23;20059;-72
2022/06/29 21:32:05;;;;;;;8.38;7.40;;;21.50;99.90;;;;;;6215742;23;19916;-72
2022/06/29 21:34:31;;;;;;;8.32;7.45;;;21.50;99.90;;;;;;6215552;23;20023;-72
2022/06/29 21:36:57;;;;;;;8.45;6.05;;;21.40;99.90;;;;;;6215749;23;20028;-71
2022/06/29 21:39:23;;;;;;;;;;;21.40;99.90;;;;;;6216167;23;20019;-72
2022/06/29 21:41:49;;;;;;;9.35;6.38;;;21.40;99.90;;;;;;6189432;23;19991;-72
2022/06/29 21:44:15;;;;;;;;;;;21.40;99.90;;;;;;6216268;23;20477;-72
2022/06/29 21:46:40;;;;;;;8.45;7.10;;;21.30;99.90;;;;;;6217408;23;19951;-71
2022/06/29 21:51:51;;;;;;;9.07;6.53;;;21.30;99.90;;;;;;6217867;23;19923;-70
2022/06/29 21:54:16;;;;;;;;;;;21.20;99.90;;;;;;6191890;23;20020;-72
2022/06/29 21:56:43;;;;;;;8.15;6.03;;;21.10;99.90;;;;;;6191328;23;19916;-72
2022/06/29 21:59:09;;;;;;;6.68;5.97;;;21.10;99.90;;;;;;6217904;23;20020;-71
2022/06/29 22:01:35;;;;;;;;;;;21.10;99.90;;;;;;6191890;23;20111;-72
2022/06/29 22:04:01;;;;;;;9.20;5.88;;;21.10;99.90;;;;;;6217723;23;19915;-72
2022/06/29 22:06:27;;;;;;;8.98;5.95;;;21.00;99.90;;;;;;6217768;23;20346;-72
2022/06/29 22:08:52;;;;;;;;;;;21.00;99.90;;;;;;6218269;23;20016;-72
2022/06/29 22:11:19;;;;;;;6.63;5.22;;;20.90;99.90;;;;;;6217722;23;19922;-71
2022/06/29 22:13:45;;;;;;;8.75;5.57;;;20.90;99.90;;;;;;6217692;23;20508;-71
2022/06/29 22:16:10;;;;;;;;;;;20.90;99.90;;;;;;6191537;23;20430;-73
2022/06/29 22:18:36;;;;;;;8.85;5.30;;;20.80;99.90;;;;;;6217651;23;19923;-71
2022/06/29 22:21:02;;;;;;;;;;;20.80;99.90;;;;;;6218179;23;20017;-71
2022/06/29 22:23:28;;;;;;;8.80;4.93;;;20.70;99.90;;;;;;6191025;23;19916;-71
2022/06/29 22:25:53;;;;;;;;;;;20.70;99.90;;;;;;6191584;23;20016;-73
2022/06/29 22:28:19;;;;;;;8.00;5.18;;;20.60;99.90;;;;;;6191013;23;20314;-71
2022/06/29 22:30:44;;;;;;;;;;;20.60;99.90;;;;;;6218161;23;20096;-72
2022/06/29 22:33:11;;;;;;;6.95;4.97;;;20.50;99.90;;;;;;6217241;23;19923;-72
2022/06/29 22:35:36;;;;;;;8.43;5.63;;;20.50;99.90;;;;;;6190850;23;20346;-71
2022/06/29 22:38:03;;;;;;;12.02;6.22;;;20.40;99.90;;;;;;6217463;23;20027;-71
2022/06/29 22:40:32;;;;;;;8.93;6.38;;;20.40;99.90;;;;;;6217447;23;20095;-71
2022/06/29 22:42:58;;;;;;;6.10;4.95;;;20.40;99.90;;;;;;6189595;23;20017;-71
2022/06/29 22:45:25;;;;;;;7.10;5.70;;;20.40;99.90;;;;;;6217363;23;20071;-71
2022/06/29 22:47:51;;;;;;;8.32;4.88;;;20.30;99.90;;;;;;6217389;23;20024;-73
2022/06/29 22:50:16;;;;;;;;;;;20.30;99.90;;;;;;6217929;23;20047;-71
2022/06/29 22:52:42;;;;;;;6.15;5.32;;;20.30;99.90;;;;;;6217289;23;19922;-71
2022/06/29 22:55:11;;;;;;;;;;;20.20;99.90;;;;;;6191230;23;20031;-72
2022/06/29 22:57:37;;;;;;;7.03;4.85;;;20.20;99.90;;;;;;6216681;23;19923;-71
2022/06/29 23:00:04;;;;;;;;;;;20.10;99.90;;;;;;6190937;23;20074;-71
2022/06/29 23:02:29;;;;;;;7.20;4.78;;;20.20;99.90;;;;;;6217040;23;19922;-71
2022/06/29 23:04:55;;;;;;;;;;;20.10;99.90;;;;;;6191074;23;20021;-72
2022/06/29 23:07:21;;;;;;;6.32;5.00;;;20.10;99.90;;;;;;6217245;23;19968;-71
2022/06/29 23:09:49;;;;;;;9.02;5.30;;;20.10;99.90;;;;;;6216868;23;20024;-71
2022/06/29 23:12:30;;;;;;;8.13;5.57;;;20.10;99.90;;;;;;6217205;23;20091;-70
2022/06/29 23:15:09;;;;;;;6.80;5.22;;;20.10;99.90;;;;;;6217039;23;20095;-71
2022/06/29 23:17:35;;;;;;;7.00;5.22;;;20.10;99.90;;;;;;6217138;23;20016;-72
2022/06/29 23:20:07;;;;;;;10.23;5.22;;;20.00;99.90;;;;;;6216706;23;20471;-71
2022/06/29 23:22:32;;;;;;;5.30;4.60;;;20.00;99.90;;;;;;6217072;23;20092;-70
2022/06/29 23:24:59;;;;;;;5.28;4.13;;;19.90;99.90;;;;;;6190444;23;20381;-71
2022/06/29 23:27:25;;;;;;;7.22;4.97;;;19.90;99.90;;;;;;6190083;23;20017;-72
2022/06/29 23:29:52;;;;;;;7.20;5.25;;;19.90;99.90;;;;;;6216618;23;20480;-72
2022/06/29 23:32:18;;;;;;;6.82;5.43;;;19.80;99.90;;;;;;6190208;23;20022;-72
2022/06/29 23:34:44;;;;;;;8.00;5.45;;;19.80;99.90;;;;;;6216357;23;20044;-71
2022/06/29 23:37:10;;;;;;;;;;;19.80;99.90;;;;;;6217411;23;20076;-71
2022/06/29 23:39:36;;;;;;;5.35;4.53;;;19.80;99.90;;;;;;6190305;23;19919;-71
2022/06/29 23:42:02;;;;;;;6.43;4.95;;;19.70;99.90;;;;;;6216825;23;20017;-71
2022/06/29 23:44:28;;;;;;;8.75;4.22;;;19.70;99.90;;;;;;6216920;23;20315;-71
2022/06/29 23:46:55;;;;;;;5.75;4.30;;;19.70;99.90;;;;;;6190227;23;20016;-71
2022/06/29 23:49:22;;;;;;;8.07;4.57;;;19.60;99.90;;;;;;6216712;23;20070;-71
2022/06/29 23:51:50;;;;;;;5.95;4.57;;;19.60;99.90;;;;;;6216765;23;20044;-71
2022/06/29 23:54:16;;;;;;;6.72;4.60;;;19.60;99.90;;;;;;6216595;23;20461;-71
2022/06/29 23:56:42;;;;;;;5.43;4.53;;;19.60;99.90;;;;;;6190201;23;20016;-72
2022/06/29 23:59:08;;;;;;;8.45;4.80;;;19.50;99.90;;;;;;6216712;23;20017;-72
